sensor_id;sensor_type;location;lat;lon;timestamp;pressure;altitude;pressure_sealevel;temperature;humidity
35892;BME280;21993;42.672;23.296;2024-03-08T00:01:35;94767.56;;;7.94;73.85
35892;BME280;21993;42.672;23.296;2024-03-08T00:04:01;94772.66;;;7.95;73.58
35892;BME280;21993;42.672;23.296;2024-03-08T00:06:26;94757.44;;;7.89;74.38
35892;BME280;21993;42.672;23.296;2024-03-08T00:08:52;94758.78;;;7.95;73.93
35892;BME280;21993;42.672;23.296;2024-03-08T00:11:17;94768.41;;;7.94;73.77
35892;BME280;21993;42.672;23.296;2024-03-08T00:13:43;94772.66;;;7.95;73.25
35892;BME280;21993;42.672;23.296;2024-03-08T00:16:10;94761.75;;;8.01;71.70
35892;BME280;21993;42.672;23.296;2024-03-08T00:18:35;94760.81;;;7.91;73.52
35892;BME280;21993;42.672;23.296;2024-03-08T00:21:01;94752.34;;;7.87;72.73
35892;BME280;21993;42.672;23.296;2024-03-08T00:23:28;94765.53;;;7.97;72.90
35892;BME280;21993;42.672;23.296;2024-03-08T00:25:53;94754.13;;;7.98;72.97
35892;BME280;21993;42.672;23.296;2024-03-08T00:28:20;94760.81;;;7.91;73.17
35892;BME280;21993;42.672;23.296;2024-03-08T00:30:45;94756.25;;;7.71;74.22
35892;BME280;21993;42.672;23.296;2024-03-08T00:33:11;94752.81;;;7.70;74.70
35892;BME280;21993;42.672;23.296;2024-03-08T00:35:37;94753.06;;;7.78;74.91
35892;BME280;21993;42.672;23.296;2024-03-08T00:38:03;94759.94;;;7.68;74.24
35892;BME280;21993;42.672;23.296;2024-03-08T00:40:28;94745.59;;;7.74;74.32
35892;BME280;21993;42.672;23.296;2024-03-08T00:42:54;94758.16;;;7.80;73.45
35892;BME280;21993;42.672;23.296;2024-03-08T00:45:19;94746.50;;;7.73;73.45
35892;BME280;21993;42.672;23.296;2024-03-08T00:47:45;94742.25;;;7.72;73.35
35892;BME280;21993;42.672;23.296;2024-03-08T00:50:10;94751.84;;;7.71;73.59
35892;BME280;21993;42.672;23.296;2024-03-08T00:52:37;94747.47;;;7.60;74.05
35892;BME280;21993;42.672;23.296;2024-03-08T00:55:02;94741.41;;;7.71;74.64
35892;BME280;21993;42.672;23.296;2024-03-08T00:57:28;94744.72;;;7.62;74.88
35892;BME280;21993;42.672;23.296;2024-03-08T00:59:55;94739.13;;;7.55;74.87
35892;BME280;21993;42.672;23.296;2024-03-08T01:02:21;94739.38;;;7.63;74.70
35892;BME280;21993;42.672;23.296;2024-03-08T01:04:48;94735.69;;;7.55;75.33
35892;BME280;21993;42.672;23.296;2024-03-08T01:07:14;94725.03;;;7.58;75.95
35892;BME280;21993;42.672;23.296;2024-03-08T01:09:39;94725.38;;;7.65;76.19
35892;BME280;21993;42.672;23.296;2024-03-08T01:12:05;94720.88;;;7.67;75.45
35892;BME280;21993;42.672;23.296;2024-03-08T01:14:33;94724.28;;;7.56;75.29
35892;BME280;21993;42.672;23.296;2024-03-08T01:16:58;94728.47;;;7.70;74.90
35892;BME280;21993;42.672;23.296;2024-03-08T01:19:24;94728.34;;;7.60;75.31
35892;BME280;21993;42.672;23.296;2024-03-08T01:21:50;94726.81;;;7.57;75.85
35892;BME280;21993;42.672;23.296;2024-03-08T01:24:15;94720.97;;;7.54;75.81
35892;BME280;21993;42.672;23.296;2024-03-08T01:26:41;94721.22;;;7.51;76.57
35892;BME280;21993;42.672;23.296;2024-03-08T01:29:06;94717.28;;;7.56;75.90
35892;BME280;21993;42.672;23.296;2024-03-08T01:31:33;94714.78;;;7.55;75.03
35892;BME280;21993;42.672;23.296;2024-03-08T01:34:00;94715.63;;;7.55;75.68
35892;BME280;21993;42.672;23.296;2024-03-08T01:36:26;94707.22;;;7.52;75.89
35892;BME280;21993;42.672;23.296;2024-03-08T01:38:52;94709.69;;;7.42;76.18
35892;BME280;21993;42.672;23.296;2024-03-08T01:41:18;94712.75;;;7.47;76.23
35892;BME280;21993;42.672;23.296;2024-03-08T01:43:44;94715.16;;;7.50;75.50
35892;BME280;21993;42.672;23.296;2024-03-08T01:46:12;94714.53;;;7.47;75.62
35892;BME280;21993;42.672;23.296;2024-03-08T01:48:40;94710.16;;;7.47;74.89
35892;BME280;21993;42.672;23.296;2024-03-08T01:51:08;94713.59;;;7.37;75.31
35892;BME280;21993;42.672;23.296;2024-03-08T01:53:35;94715.88;;;7.41;74.54
35892;BME280;21993;42.672;23.296;2024-03-08T01:56:02;94703.75;;;7.51;75.06
35892;BME280;21993;42.672;23.296;2024-03-08T01:58:29;94708.75;;;7.54;74.58
35892;BME280;21993;42.672;23.296;2024-03-08T02:00:56;94705.88;;;7.46;75.02
35892;BME280;21993;42.672;23.296;2024-03-08T02:03:23;94695.94;;;7.51;73.91
35892;BME280;21993;42.672;23.296;2024-03-08T02:05:49;94703.06;;;7.49;74.94
35892;BME280;21993;42.672;23.296;2024-03-08T02:08:15;94696.38;;;7.45;74.83
35892;BME280;21993;42.672;23.296;2024-03-08T02:10:41;94698.88;;;7.47;74.65
35892;BME280;21993;42.672;23.296;2024-03-08T02:13:07;94700.31;;;7.51;74.03
35892;BME280;21993;42.672;23.296;2024-03-08T02:18:18;94702.19;;;7.38;74.82
35892;BME280;21993;42.672;23.296;2024-03-08T02:21:00;94707.41;;;7.38;74.63
35892;BME280;21993;42.672;23.296;2024-03-08T02:23:26;94711.09;;;7.35;74.46
35892;BME280;21993;42.672;23.296;2024-03-08T02:25:53;94711.09;;;7.35;75.50
35892;BME280;21993;42.672;23.296;2024-03-08T02:28:19;94706.47;;;7.39;74.67
35892;BME280;21993;42.672;23.296;2024-03-08T02:30:46;94710.72;;;7.40;74.85
35892;BME280;21993;42.672;23.296;2024-03-08T02:33:16;94713.72;;;7.35;75.01
35892;BME280;21993;42.672;23.296;2024-03-08T02:35:45;94710.53;;;7.43;75.47
35892;BME280;21993;42.672;23.296;2024-03-08T02:38:12;94715.41;;;7.58;73.78
35892;BME280;21993;42.672;23.296;2024-03-08T02:40:38;94716.94;;;7.61;74.04
35892;BME280;21993;42.672;23.296;2024-03-08T02:43:04;94721.94;;;7.64;72.41
35892;BME280;21993;42.672;23.296;2024-03-08T02:45:30;94711.97;;;7.58;72.68
35892;BME280;21993;42.672;23.296;2024-03-08T02:47:56;94713.38;;;7.62;70.67
35892;BME280;21993;42.672;23.296;2024-03-08T02:50:21;94717.91;;;7.49;70.04
35892;BME280;21993;42.672;23.296;2024-03-08T02:52:48;94725.94;;;7.46;71.13
35892;BME280;21993;42.672;23.296;2024-03-08T02:55:13;94722.28;;;7.48;70.14
35892;BME280;21993;42.672;23.296;2024-03-08T02:57:42;94721.78;;;7.43;69.61
35892;BME280;21993;42.672;23.296;2024-03-08T03:00:09;94719.69;;;7.48;70.50
35892;BME280;21993;42.672;23.296;2024-03-08T03:02:35;94725.81;;;7.47;70.03
35892;BME280;21993;42.672;23.296;2024-03-08T03:05:01;94714.78;;;7.44;69.72
35892;BME280;21993;42.672;23.296;2024-03-08T03:07:34;94727.03;;;7.43;68.77
35892;BME280;21993;42.672;23.296;2024-03-08T03:10:00;94723.78;;;7.40;69.86
35892;BME280;21993;42.672;23.296;2024-03-08T03:12:30;94727.72;;;7.34;70.98
35892;BME280;21993;42.672;23.296;2024-03-08T03:14:56;94729.88;;;7.40;70.31
35892;BME280;21993;42.672;23.296;2024-03-08T03:17:24;94727.00;;;7.32;68.81
35892;BME280;21993;42.672;23.296;2024-03-08T03:19:50;94732.22;;;7.32;68.82
35892;BME280;21993;42.672;23.296;2024-03-08T03:22:17;94730.22;;;7.36;67.68
35892;BME280;21993;42.672;23.296;2024-03-08T03:24:44;94732.22;;;7.32;68.17
35892;BME280;21993;42.672;23.296;2024-03-08T03:27:09;94738.38;;;7.31;69.26
35892;BME280;21993;42.672;23.296;2024-03-08T03:29:42;94730.22;;;7.36;69.87
35892;BME280;21993;42.672;23.296;2024-03-08T03:32:14;94727.19;;;7.18;68.33
35892;BME280;21993;42.672;23.296;2024-03-08T03:34:40;94743.25;;;7.36;68.64
35892;BME280;21993;42.672;23.296;2024-03-08T03:37:06;94737.34;;;7.33;67.98
35892;BME280;21993;42.672;23.296;2024-03-08T03:39:33;94753.13;;;7.43;67.43
35892;BME280;21993;42.672;23.296;2024-03-08T03:42:00;94742.94;;;7.40;65.79
35892;BME280;21993;42.672;23.296;2024-03-08T03:44:30;94748.47;;;7.36;66.54
35892;BME280;21993;42.672;23.296;2024-03-08T03:46:55;94756.38;;;7.23;66.27
35892;BME280;21993;42.672;23.296;2024-03-08T03:49:21;94757.38;;;7.33;65.95
35892;BME280;21993;42.672;23.296;2024-03-08T03:51:46;94757.38;;;7.33;65.88
35892;BME280;21993;42.672;23.296;2024-03-08T03:54:12;94750.72;;;7.29;66.25
35892;BME280;21993;42.672;23.296;2024-03-08T03:56:38;94764.88;;;7.38;66.61
35892;BME280;21993;42.672;23.296;2024-03-08T03:59:05;94759.69;;;7.49;65.47
35892;BME280;21993;42.672;23.296;2024-03-08T04:01:32;94758.59;;;7.40;65.20
35892;BME280;21993;42.672;23.296;2024-03-08T04:03:58;94764.03;;;7.37;65.72
35892;BME280;21993;42.672;23.296;2024-03-08T04:06:23;94764.66;;;7.41;66.28
35892;BME280;21993;42.672;23.296;2024-03-08T04:08:49;94765.09;;;7.34;65.73
35892;BME280;21993;42.672;23.296;2024-03-08T04:11:15;94766.63;;;7.26;67.19
35892;BME280;21993;42.672;23.296;2024-03-08T04:13:42;94773.75;;;7.35;66.81
35892;BME280;21993;42.672;23.296;2024-03-08T04:16:08;94775.88;;;7.30;66.53
35892;BME280;21993;42.672;23.296;2024-03-08T04:18:36;94779.44;;;7.29;66.74
35892;BME280;21993;42.672;23.296;2024-03-08T04:21:04;94778.00;;;7.25;67.46
35892;BME280;21993;42.672;23.296;2024-03-08T04:23:32;94780.88;;;7.33;66.70
35892;BME280;21993;42.672;23.296;2024-03-08T04:26:01;94782.31;;;7.37;65.78
35892;BME280;21993;42.672;23.296;2024-03-08T04:28:26;94777.22;;;7.36;66.32
35892;BME280;21993;42.672;23.296;2024-03-08T04:30:52;94784.81;;;7.39;66.64
35892;BME280;21993;42.672;23.296;2024-03-08T04:33:17;94786.22;;;7.31;66.30
35892;BME280;21993;42.672;23.296;2024-03-08T04:35:43;94795.38;;;7.37;66.67
35892;BME280;21993;42.672;23.296;2024-03-08T04:38:11;94790.84;;;7.28;66.47
35892;BME280;21993;42.672;23.296;2024-03-08T04:40:36;94800.72;;;7.36;66.97
35892;BME280;21993;42.672;23.296;2024-03-08T04:43:02;94795.59;;;7.34;66.96
35892;BME280;21993;42.672;23.296;2024-03-08T04:45:28;94797.97;;;7.37;67.55
35892;BME280;21993;42.672;23.296;2024-03-08T04:47:53;94797.78;;;7.40;66.64
35892;BME280;21993;42.672;23.296;2024-03-08T04:50:19;94796.06;;;7.28;67.84
35892;BME280;21993;42.672;23.296;2024-03-08T04:52:44;94801.84;;;7.20;67.70
35892;BME280;21993;42.672;23.296;2024-03-08T04:55:09;94803.63;;;7.20;68.26
35892;BME280;21993;42.672;23.296;2024-03-08T04:57:35;94796.06;;;7.28;68.89
35892;BME280;21993;42.672;23.296;2024-03-08T05:00:04;94804.16;;;7.36;67.21
35892;BME280;21993;42.672;23.296;2024-03-08T05:02:40;94800.72;;;7.36;68.07
35892;BME280;21993;42.672;23.296;2024-03-08T05:05:07;94804.38;;;7.33;67.76
35892;BME280;21993;42.672;23.296;2024-03-08T05:07:33;94813.38;;;7.29;68.73
35892;BME280;21993;42.672;23.296;2024-03-08T05:09:59;94807.06;;;7.20;68.99
35892;BME280;21993;42.672;23.296;2024-03-08T05:12:25;94814.41;;;7.15;69.32
35892;BME280;21993;42.672;23.296;2024-03-08T05:14:51;94819.28;;;7.20;69.24
35892;BME280;21993;42.672;23.296;2024-03-08T05:17:16;94818.56;;;7.18;68.70
35892;BME280;21993;42.672;23.296;2024-03-08T05:19:42;94826.13;;;7.10;69.69
35892;BME280;21993;42.672;23.296;2024-03-08T05:22:08;94823.63;;;7.08;69.53
35892;BME280;21993;42.672;23.296;2024-03-08T05:24:34;94826.97;;;7.10;69.64
35892;BME280;21993;42.672;23.296;2024-03-08T05:26:59;94839.06;;;7.11;69.70
35892;BME280;21993;42.672;23.296;2024-03-08T05:29:26;94839.88;;;7.12;70.32
35892;BME280;21993;42.672;23.296;2024-03-08T05:31:52;94844.00;;;7.27;69.80
35892;BME280;21993;42.672;23.296;2024-03-08T05:34:18;94846.22;;;7.20;69.50
35892;BME280;21993;42.672;23.296;2024-03-08T05:36:45;94840.41;;;7.17;69.30
35892;BME280;21993;42.672;23.296;2024-03-08T05:39:15;94853.56;;;7.15;69.75
35892;BME280;21993;42.672;23.296;2024-03-08T05:41:41;94855.22;;;7.16;70.18
35892;BME280;21993;42.672;23.296;2024-03-08T05:44:08;94855.06;;;7.07;70.20
35892;BME280;21993;42.672;23.296;2024-03-08T05:46:34;94862.91;;;7.07;69.83
35892;BME280;21993;42.672;23.296;2024-03-08T05:49:01;94854.13;;;7.08;69.59
35892;BME280;21993;42.672;23.296;2024-03-08T05:51:33;94865.28;;;7.10;69.50
35892;BME280;21993;42.672;23.296;2024-03-08T05:54:06;94871.00;;;7.15;69.84
35892;BME280;21993;42.672;23.296;2024-03-08T05:56:32;94875.31;;;7.27;69.47
35892;BME280;21993;42.672;23.296;2024-03-08T05:58:58;94872.31;;;7.20;69.01
35892;BME280;21993;42.672;23.296;2024-03-08T06:01:25;94869.50;;;7.23;69.04
35892;BME280;21993;42.672;23.296;2024-03-08T06:03:55;94871.25;;;7.23;69.56
35892;BME280;21993;42.672;23.296;2024-03-08T06:06:23;94880.31;;;7.30;69.53
35892;BME280;21993;42.672;23.296;2024-03-08T06:08:49;94883.28;;;7.25;69.65
35892;BME280;21993;42.672;23.296;2024-03-08T06:11:15;94883.88;;;7.29;69.71
35892;BME280;21993;42.672;23.296;2024-03-08T06:13:42;94883.16;;;7.27;68.90
35892;BME280;21993;42.672;23.296;2024-03-08T06:16:08;94889.66;;;7.21;68.73
35892;BME280;21993;42.672;23.296;2024-03-08T06:18:36;94901.66;;;7.24;69.75
35892;BME280;21993;42.672;23.296;2024-03-08T06:21:08;94898.22;;;7.23;69.27
35892;BME280;21993;42.672;23.296;2024-03-08T06:23:37;94901.75;;;7.22;69.99
35892;BME280;21993;42.672;23.296;2024-03-08T06:26:07;94901.75;;;7.22;69.43
35892;BME280;21993;42.672;23.296;2024-03-08T06:28:33;94900.47;;;7.28;70.29
35892;BME280;21993;42.672;23.296;2024-03-08T06:31:00;94897.59;;;7.20;69.81
35892;BME280;21993;42.672;23.296;2024-03-08T06:33:26;94905.00;;;7.26;69.93
35892;BME280;21993;42.672;23.296;2024-03-08T06:35:53;94892.78;;;7.26;69.06
35892;BME280;21993;42.672;23.296;2024-03-08T06:38:19;94908.19;;;7.29;68.47
35892;BME280;21993;42.672;23.296;2024-03-08T06:40:46;94908.44;;;7.26;68.25
35892;BME280;21993;42.672;23.296;2024-03-08T06:43:14;94907.72;;;7.24;67.64
35892;BME280;21993;42.672;23.296;2024-03-08T06:45:43;94909.31;;;7.14;68.76
35892;BME280;21993;42.672;23.296;2024-03-08T06:48:15;94902.81;;;7.20;67.85
35892;BME280;21993;42.672;23.296;2024-03-08T06:50:40;94913.69;;;7.14;68.40
35892;BME280;21993;42.672;23.296;2024-03-08T06:53:06;94913.63;;;7.02;69.04
35892;BME280;21993;42.672;23.296;2024-03-08T06:55:32;94913.50;;;7.04;69.61
35892;BME280;21993;42.672;23.296;2024-03-08T06:57:58;94917.25;;;7.13;69.60
35892;BME280;21993;42.672;23.296;2024-03-08T07:00:23;94911.81;;;7.16;67.50
35892;BME280;21993;42.672;23.296;2024-03-08T07:02:52;94918.25;;;7.23;66.89
35892;BME280;21993;42.672;23.296;2024-03-08T07:05:19;94915.19;;;7.05;67.84
35892;BME280;21993;42.672;23.296;2024-03-08T07:07:45;94918.19;;;7.12;68.14
35892;BME280;21993;42.672;23.296;2024-03-08T07:10:13;94925.41;;;7.08;68.34
35892;BME280;21993;42.672;23.296;2024-03-08T07:12:41;94917.88;;;7.16;68.05
35892;BME280;21993;42.672;23.296;2024-03-08T07:15:06;94926.44;;;7.05;66.92
35892;BME280;21993;42.672;23.296;2024-03-08T07:17:33;94918.03;;;7.02;66.99
35892;BME280;21993;42.672;23.296;2024-03-08T07:20:00;94920.66;;;6.89;68.48
35892;BME280;21993;42.672;23.296;2024-03-08T07:22:33;94928.56;;;7.00;68.08
35892;BME280;21993;42.672;23.296;2024-03-08T07:24:58;94931.94;;;6.90;68.47
35892;BME280;21993;42.672;23.296;2024-03-08T07:27:45;94923.13;;;7.03;67.72
35892;BME280;21993;42.672;23.296;2024-03-08T07:30:11;94931.88;;;7.15;67.05
35892;BME280;21993;42.672;23.296;2024-03-08T07:32:37;94929.59;;;7.11;66.68
35892;BME280;21993;42.672;23.296;2024-03-08T07:35:03;94931.47;;;7.09;67.30
35892;BME280;21993;42.672;23.296;2024-03-08T07:37:29;94933.03;;;7.11;66.80
35892;BME280;21993;42.672;23.296;2024-03-08T07:39:54;94932.63;;;7.04;67.34
35892;BME280;21993;42.672;23.296;2024-03-08T07:42:20;94936.97;;;7.17;67.05
35892;BME280;21993;42.672;23.296;2024-03-08T07:44:46;94939.47;;;7.18;67.90
35892;BME280;21993;42.672;23.296;2024-03-08T07:47:13;94939.25;;;7.21;66.48
35892;BME280;21993;42.672;23.296;2024-03-08T07:49:39;94935.88;;;7.08;67.70
35892;BME280;21993;42.672;23.296;2024-03-08T07:52:04;94934.56;;;7.14;68.22
35892;BME280;21993;42.672;23.296;2024-03-08T07:54:32;94938.22;;;7.24;68.31
35892;BME280;21993;42.672;23.296;2024-03-08T07:56:58;94933.81;;;7.24;68.13
35892;BME280;21993;42.672;23.296;2024-03-08T07:59:24;94943.81;;;7.30;68.36
35892;BME280;21993;42.672;23.296;2024-03-08T08:01:50;94948.16;;;7.43;67.58
35892;BME280;21993;42.672;23.296;2024-03-08T08:04:15;94937.72;;;7.43;68.56
35892;BME280;21993;42.672;23.296;2024-03-08T08:06:43;94928.16;;;7.54;68.09
35892;BME280;21993;42.672;23.296;2024-03-08T08:09:09;94934.72;;;7.60;67.42
35892;BME280;21993;42.672;23.296;2024-03-08T08:11:41;94939.25;;;7.69;67.72
35892;BME280;21993;42.672;23.296;2024-03-08T08:14:09;94939.38;;;7.68;65.79
35892;BME280;21993;42.672;23.296;2024-03-08T08:16:35;94935.09;;;7.67;66.96
35892;BME280;21993;42.672;23.296;2024-03-08T08:19:06;94931.81;;;7.76;66.82
35892;BME280;21993;42.672;23.296;2024-03-08T08:21:36;94930.78;;;7.89;65.50
35892;BME280;21993;42.672;23.296;2024-03-08T08:24:05;94937.44;;;7.82;65.47
35892;BME280;21993;42.672;23.296;2024-03-08T08:26:31;94934.06;;;7.80;66.55
35892;BME280;21993;42.672;23.296;2024-03-08T08:28:58;94931.72;;;7.88;66.31
35892;BME280;21993;42.672;23.296;2024-03-08T08:31:24;94933.88;;;7.95;67.12
35892;BME280;21993;42.672;23.296;2024-03-08T08:33:51;94939.44;;;7.90;66.98
35892;BME280;21993;42.672;23.296;2024-03-08T08:36:23;94931.97;;;7.97;67.48
35892;BME280;21993;42.672;23.296;2024-03-08T08:38:49;94924.91;;;8.10;66.56
35892;BME280;21993;42.672;23.296;2024-03-08T08:41:14;94931.59;;;8.25;66.34
35892;BME280;21993;42.672;23.296;2024-03-08T08:43:41;94926.19;;;8.51;64.92
35892;BME280;21993;42.672;23.296;2024-03-08T08:46:10;94921.41;;;8.56;64.93
35892;BME280;21993;42.672;23.296;2024-03-08T08:48:39;94917.38;;;8.63;65.00
35892;BME280;21993;42.672;23.296;2024-03-08T08:51:09;94920.13;;;8.72;63.69
35892;BME280;21993;42.672;23.296;2024-03-08T08:53:41;94911.31;;;8.85;63.08
35892;BME280;21993;42.672;23.296;2024-03-08T08:56:08;94923.69;;;8.83;62.33
35892;BME280;21993;42.672;23.296;2024-03-08T08:58:34;94913.47;;;8.80;62.13
35892;BME280;21993;42.672;23.296;2024-03-08T09:01:00;94915.38;;;9.00;62.03
35892;BME280;21993;42.672;23.296;2024-03-08T09:03:27;94908.56;;;9.09;60.92
35892;BME280;21993;42.672;23.296;2024-03-08T09:05:53;94918.88;;;9.21;59.89
35892;BME280;21993;42.672;23.296;2024-03-08T09:08:19;94917.19;;;9.31;60.34
35892;BME280;21993;42.672;23.296;2024-03-08T09:10:45;94924.56;;;9.38;59.13
35892;BME280;21993;42.672;23.296;2024-03-08T09:13:13;94914.34;;;9.35;58.91
35892;BME280;21993;42.672;23.296;2024-03-08T09:15:39;94906.94;;;9.40;59.07
35892;BME280;21993;42.672;23.296;2024-03-08T09:18:06;94910.72;;;9.47;59.01
35892;BME280;21993;42.672;23.296;2024-03-08T09:20:32;94912.16;;;9.40;59.41
35892;BME280;21993;42.672;23.296;2024-03-08T09:22:57;94910.19;;;9.21;59.58
35892;BME280;21993;42.672;23.296;2024-03-08T09:25:23;94910.47;;;9.50;59.19
35892;BME280;21993;42.672;23.296;2024-03-08T09:27:49;94908.91;;;9.58;59.28
35892;BME280;21993;42.672;23.296;2024-03-08T09:30:15;94899.56;;;9.66;59.11
35892;BME280;21993;42.672;23.296;2024-03-08T09:32:40;94905.47;;;9.79;58.50
35892;BME280;21993;42.672;23.296;2024-03-08T09:35:07;94906.22;;;10.02;57.96
35892;BME280;21993;42.672;23.296;2024-03-08T09:37:33;94905.31;;;10.12;56.12
35892;BME280;21993;42.672;23.296;2024-03-08T09:39:59;94908.47;;;10.27;55.70
35892;BME280;21993;42.672;23.296;2024-03-08T09:42:26;94903.00;;;10.61;54.87
35892;BME280;21993;42.672;23.296;2024-03-08T09:44:51;94900.56;;;10.69;53.83
35892;BME280;21993;42.672;23.296;2024-03-08T09:47:22;94909.81;;;10.73;53.91
35892;BME280;21993;42.672;23.296;2024-03-08T09:49:49;94907.53;;;10.59;53.02
35892;BME280;21993;42.672;23.296;2024-03-08T09:52:15;94907.84;;;10.96;54.03
35892;BME280;21993;42.672;23.296;2024-03-08T09:54:41;94898.97;;;11.37;53.69
35892;BME280;21993;42.672;23.296;2024-03-08T09:57:10;94905.66;;;11.61;51.88
35892;BME280;21993;42.672;23.296;2024-03-08T09:59:35;94897.63;;;11.62;51.09
35892;BME280;21993;42.672;23.296;2024-03-08T10:02:14;94896.53;;;11.84;51.63
35892;BME280;21993;42.672;23.296;2024-03-08T10:04:40;94896.53;;;12.13;51.46
35892;BME280;21993;42.672;23.296;2024-03-08T10:07:11;94894.69;;;12.23;50.41
35892;BME280;21993;42.672;23.296;2024-03-08T10:09:38;94897.88;;;12.17;50.14
35892;BME280;21993;42.672;23.296;2024-03-08T10:12:04;94895.41;;;12.16;50.79
35892;BME280;21993;42.672;23.296;2024-03-08T10:14:30;94899.69;;;12.17;50.32
35892;BME280;21993;42.672;23.296;2024-03-08T10:16:59;94899.16;;;12.03;50.17
35892;BME280;21993;42.672;23.296;2024-03-08T10:19:26;94894.03;;;12.11;50.34
35892;BME280;21993;42.672;23.296;2024-03-08T10:21:53;94900.66;;;12.16;49.64
35892;BME280;21993;42.672;23.296;2024-03-08T10:24:24;94893.44;;;12.27;49.75
35892;BME280;21993;42.672;23.296;2024-03-08T10:26:55;94896.94;;;12.28;50.23
35892;BME280;21993;42.672;23.296;2024-03-08T10:29:23;94905.53;;;12.01;50.83
35892;BME280;21993;42.672;23.296;2024-03-08T10:31:49;94891.81;;;12.07;51.38
35892;BME280;21993;42.672;23.296;2024-03-08T10:34:16;94897.34;;;12.14;50.70
35892;BME280;21993;42.672;23.296;2024-03-08T10:36:42;94893.19;;;11.92;50.10
35892;BME280;21993;42.672;23.296;2024-03-08T10:39:22;94892.06;;;11.65;50.64
35892;BME280;21993;42.672;23.296;2024-03-08T10:41:58;94881.97;;;11.70;50.32
35892;BME280;21993;42.672;23.296;2024-03-08T10:47:01;94880.47;;;11.77;50.12
35892;BME280;21993;42.672;23.296;2024-03-08T10:49:38;94881.88;;;11.81;50.57
35892;BME280;21993;42.672;23.296;2024-03-08T10:52:06;94881.16;;;11.79;49.85
35892;BME280;21993;42.672;23.296;2024-03-08T10:54:37;94870.78;;;11.88;50.01
35892;BME280;21993;42.672;23.296;2024-03-08T10:57:05;94874.91;;;12.09;49.64
35892;BME280;21993;42.672;23.296;2024-03-08T10:59:33;94873.25;;;12.08;48.71
35892;BME280;21993;42.672;23.296;2024-03-08T11:02:00;94868.94;;;12.17;48.91
35892;BME280;21993;42.672;23.296;2024-03-08T11:04:25;94871.44;;;12.09;48.81
35892;BME280;21993;42.672;23.296;2024-03-08T11:06:52;94865.47;;;12.26;48.84
35892;BME280;21993;42.672;23.296;2024-03-08T11:09:31;94862.81;;;12.26;48.88
35892;BME280;21993;42.672;23.296;2024-03-08T11:14:50;94857.75;;;12.52;48.48
35892;BME280;21993;42.672;23.296;2024-03-08T11:17:39;94840.41;;;12.59;47.32
35892;BME280;21993;42.672;23.296;2024-03-08T11:22:53;94837.75;;;12.69;47.53
35892;BME280;21993;42.672;23.296;2024-03-08T11:25:39;94843.94;;;12.78;48.98
35892;BME280;21993;42.672;23.296;2024-03-08T11:28:17;94850.63;;;12.72;48.87
35892;BME280;21993;42.672;23.296;2024-03-08T11:33:27;94840.78;;;12.74;48.56
35892;BME280;21993;42.672;23.296;2024-03-08T11:36:09;94827.75;;;12.73;48.70
35892;BME280;21993;42.672;23.296;2024-03-08T11:38:46;94837.63;;;12.61;48.30
35892;BME280;21993;42.672;23.296;2024-03-08T11:41:24;94834.47;;;12.57;48.54
35892;BME280;21993;42.672;23.296;2024-03-08T11:44:02;94832.09;;;12.64;48.45
35892;BME280;21993;42.672;23.296;2024-03-08T11:46:30;94835.50;;;12.74;48.48
35892;BME280;21993;42.672;23.296;2024-03-08T11:48:56;94829.94;;;12.77;48.92
35892;BME280;21993;42.672;23.296;2024-03-08T11:51:22;94839.44;;;12.98;47.59
35892;BME280;21993;42.672;23.296;2024-03-08T11:53:49;94825.56;;;12.95;47.56
35892;BME280;21993;42.672;23.296;2024-03-08T11:56:15;94824.84;;;13.03;47.63
35892;BME280;21993;42.672;23.296;2024-03-08T11:58:41;94827.66;;;13.19;46.80
35892;BME280;21993;42.672;23.296;2024-03-08T12:01:09;94829.22;;;13.40;46.64
35892;BME280;21993;42.672;23.296;2024-03-08T12:03:40;94826.34;;;13.51;45.73
35892;BME280;21993;42.672;23.296;2024-03-08T12:06:08;94810.66;;;13.67;45.55
35892;BME280;21993;42.672;23.296;2024-03-08T12:08:35;94817.53;;;14.04;44.52
35892;BME280;21993;42.672;23.296;2024-03-08T12:11:01;94815.16;;;14.45;44.39
35892;BME280;21993;42.672;23.296;2024-03-08T12:13:27;94816.47;;;14.67;43.25
35892;BME280;21993;42.672;23.296;2024-03-08T12:15:56;94818.28;;;14.66;43.29
35892;BME280;21993;42.672;23.296;2024-03-08T12:18:27;94810.69;;;14.71;42.74
35892;BME280;21993;42.672;23.296;2024-03-08T12:21:06;94809.94;;;14.87;42.38
35892;BME280;21993;42.672;23.296;2024-03-08T12:23:36;94805.31;;;14.81;42.48
35892;BME280;21993;42.672;23.296;2024-03-08T12:26:13;94814.25;;;14.54;42.43
35892;BME280;21993;42.672;23.296;2024-03-08T12:28:44;94813.16;;;14.39;43.03
35892;BME280;21993;42.672;23.296;2024-03-08T12:31:12;94807.56;;;14.16;43.46
35892;BME280;21993;42.672;23.296;2024-03-08T12:34:00;94802.91;;;14.09;43.21
35892;BME280;21993;42.672;23.296;2024-03-08T12:36:25;94813.84;;;14.15;43.00
35892;BME280;21993;42.672;23.296;2024-03-08T12:38:53;94805.28;;;14.21;43.47
35892;BME280;21993;42.672;23.296;2024-03-08T12:41:20;94807.84;;;14.30;42.64
35892;BME280;21993;42.672;23.296;2024-03-08T12:43:46;94804.09;;;14.15;43.53
35892;BME280;21993;42.672;23.296;2024-03-08T12:46:16;94794.53;;;14.14;44.15
35892;BME280;21993;42.672;23.296;2024-03-08T12:48:45;94794.25;;;14.25;45.03
35892;BME280;21993;42.672;23.296;2024-03-08T12:51:16;94798.25;;;14.29;44.89
35892;BME280;21993;42.672;23.296;2024-03-08T12:53:43;94792.25;;;14.45;44.45
35892;BME280;21993;42.672;23.296;2024-03-08T12:56:10;94783.28;;;14.38;44.04
35892;BME280;21993;42.672;23.296;2024-03-08T12:58:36;94787.44;;;14.15;43.61
35892;BME280;21993;42.672;23.296;2024-03-08T13:01:02;94789.44;;;14.21;44.74
35892;BME280;21993;42.672;23.296;2024-03-08T13:03:30;94789.59;;;14.19;44.06
35892;BME280;21993;42.672;23.296;2024-03-08T13:05:57;94791.78;;;13.98;43.76
35892;BME280;21993;42.672;23.296;2024-03-08T13:08:22;94793.75;;;13.96;44.47
35892;BME280;21993;42.672;23.296;2024-03-08T13:10:50;94794.50;;;13.88;44.78
35892;BME280;21993;42.672;23.296;2024-03-08T13:13:16;94790.06;;;13.89;44.66